Historique des mesures à Cassis (13260), France
Quotidien Résumé Juin 5, 2017 Unités:  US    Métrique   Métrique/US
« Précédent (Jour)
Suivant (Jour) »
Quotidien Hebdomadaire Mensuel Annuel Période au choix
  Maximum: Minimum: Moyenne:
Température: 32 °F 64.4 °F 71.4 °F
Point de rosée: 32 °F 51.3 °F 55.4 °F
Humidité: Humidity % 45 % 54 %
Vitesse du vent: WindSpeedKMH mph 0.0 mph 3.4 mph
Rafales: WindSpeedGustKMH mph - -
Vent:- - SSE
Pression: 0 in 29.7 in -
Précipitations: 0 in    
Historical Graphs
 
 
Mesures pour : Juin 5, 2017
Heure Temperature Point de rosée Pression Vent Vitesse du vent Rafales Humidité Pluie (par heure) Conditions
32 °F 32 °F 0 in Calm     Humidity % 0 in SoftwareType W/m2
00:10 69.4 °F 54.5 °F 29.8 in Calm   12.2 mph 59 % 0 in open2300-1.11 W/m2
01:10 68.5 °F 54.5 °F 29.8 in Calm   2.9 mph 61 % 0 in open2300-1.11 W/m2
02:10 67.8 °F 53.8 °F 29.8 in NW 3.5 mph 3.5 mph 61 % 0 in open2300-1.11 W/m2
03:10 67.6 °F 53.8 °F 29.8 in NNW 2.6 mph 2.6 mph 61 % 0 in open2300-1.11 W/m2
04:10 66 °F 52.2 °F 29.8 in NW 14.8 mph 16.3 mph 61 % 0 in open2300-1.11 W/m2
05:11 65.1 °F 51.3 °F 29.7 in North 8.7 mph 21.6 mph 61 % 0 in open2300-1.11 W/m2
06:10 64.4 °F 51.4 °F 29.7 in North 2.6 mph 6.4 mph 63 % 0 in open2300-1.11 W/m2
07:11 65.3 °F 52 °F 29.8 in Calm   2.9 mph 62 % 0 in open2300-1.11 W/m2
08:10 65.8 °F 52.5 °F 29.8 in ENE 8.7 mph 8.7 mph 62 % 0 in open2300-1.11 W/m2
09:10 67.6 °F 53.8 °F 29.8 in North 4.0 mph 4.0 mph 61 % 0 in open2300-1.11 W/m2
10:10 70.2 °F 54.7 °F 29.8 in WNW 9.3 mph 9.7 mph 58 % 0 in open2300-1.11 W/m2
11:11 76.5 °F 57.9 °F 29.8 in SSE 4.0 mph 6.8 mph 53 % 0 in open2300-1.11 W/m2
12:10 81.5 °F 59.2 °F 29.8 in Calm   7.2 mph 47 % 0 in open2300-1.11 W/m2
13:10 82.9 °F 59.9 °F 29.8 in South 5.0 mph 5.0 mph 46 % 0 in open2300-1.11 W/m2
14:10 83.5 °F 59.7 °F 29.8 in SSE 9.7 mph 13.4 mph 45 % 0 in open2300-1.11 W/m2
15:11 83.3 °F 59.7 °F 29.8 in SSE 7.2 mph 7.2 mph 45 % 0 in open2300-1.11 W/m2
16:10 81.5 °F 60.4 °F 29.8 in SSE 2.6 mph 5.8 mph 49 % 0 in open2300-1.11 W/m2
17:10 80.4 °F 60.6 °F 29.7 in SE 1.4 mph 2.1 mph 51 % 0 in open2300-1.11 W/m2
18:10 78.4 °F 59.9 °F 29.7 in Calm   5.0 mph 53 % 0 in open2300-1.11 W/m2
19:11 76.6 °F 59.2 °F 29.7 in SE 2.1 mph 2.9 mph 55 % 0 in open2300-1.11 W/m2
20:10 75.7 °F 58.8 °F 29.7 in Calm   1.1 mph 56 % 0 in open2300-1.11 W/m2
21:10 73.6 °F 58.3 °F 29.7 in Calm     59 % 0 in open2300-1.11 W/m2
22:10 72.1 °F 58.1 °F 29.7 in Calm     61 % 0 in open2300-1.11 W/m2
23:10 70.7 °F 57 °F 29.7 in Calm     62 % 0 in open2300-1.11 W/m2
Observations météo à CASSIS
WU-History script by Weather Underground - 1 mb